createdAt,value
2018-05-16T00:00:28.909Z,991.62
2018-05-16T00:01:28.946Z,991.63
2018-05-16T00:02:28.981Z,991.62
2018-05-16T00:03:29.016Z,991.62
2018-05-16T00:04:29.052Z,991.65
2018-05-16T00:05:29.087Z,991.65
2018-05-16T00:06:29.126Z,991.61
2018-05-16T00:07:29.157Z,991.61
2018-05-16T00:08:29.195Z,991.61
2018-05-16T00:09:29.227Z,991.66
2018-05-16T00:10:29.262Z,991.63
2018-05-16T00:11:29.297Z,991.60
2018-05-16T00:12:29.332Z,991.58
2018-05-16T00:13:29.367Z,991.58
2018-05-16T00:14:29.404Z,991.57
2018-05-16T00:15:29.438Z,991.61
2018-05-16T00:16:29.473Z,991.59
2018-05-16T00:17:29.509Z,991.56
2018-05-16T00:18:29.541Z,991.58
2018-05-16T00:19:29.578Z,991.63
2018-05-16T00:20:29.616Z,991.62
2018-05-16T00:21:29.646Z,991.63
2018-05-16T00:22:29.683Z,991.65
2018-05-16T00:23:29.718Z,991.63
2018-05-16T00:24:29.754Z,991.64
2018-05-16T00:25:29.790Z,991.63
2018-05-16T00:26:29.823Z,991.65
2018-05-16T00:27:29.859Z,991.67
2018-05-16T00:28:29.895Z,991.68
2018-05-16T00:29:29.930Z,991.66
2018-05-16T00:30:29.965Z,991.66
2018-05-16T00:31:30.001Z,991.65
2018-05-16T00:32:30.038Z,991.66
2018-05-16T00:33:30.070Z,991.71
2018-05-16T00:34:30.108Z,991.66
2018-05-16T00:35:30.142Z,991.65
2018-05-16T00:36:30.179Z,991.63
2018-05-16T00:37:30.217Z,991.65
2018-05-16T00:38:30.252Z,991.66
2018-05-16T00:39:30.283Z,991.64
2018-05-16T00:40:30.319Z,991.65
2018-05-16T00:41:30.353Z,991.58
2018-05-16T00:42:30.389Z,991.61
2018-05-16T00:43:30.424Z,991.60
2018-05-16T00:44:30.469Z,991.55
2018-05-16T00:45:30.495Z,991.57
2018-05-16T00:46:30.530Z,991.55
2018-05-16T00:47:30.570Z,991.55
2018-05-16T00:48:30.605Z,991.53
2018-05-16T00:49:30.647Z,991.56
2018-05-16T00:50:30.669Z,991.51
2018-05-16T00:51:30.704Z,991.56
2018-05-16T00:52:30.739Z,991.56
2018-05-16T00:53:30.774Z,991.58
2018-05-16T00:54:30.817Z,991.56
2018-05-16T00:55:30.886Z,991.54
2018-05-16T00:56:30.881Z,991.53
2018-05-16T00:57:30.922Z,991.55
2018-05-16T00:58:30.953Z,991.47
2018-05-16T00:59:30.987Z,991.47
2018-05-16T01:00:31.025Z,991.49
2018-05-16T01:01:31.057Z,991.49
2018-05-16T01:02:31.102Z,991.44
2018-05-16T01:03:31.128Z,991.45
2018-05-16T01:04:31.166Z,991.48
2018-05-16T01:05:31.197Z,991.47
2018-05-16T01:06:31.232Z,991.49
2018-05-16T01:07:31.267Z,991.48
2018-05-16T01:08:31.304Z,991.46
2018-05-16T01:09:31.340Z,991.50
2018-05-16T01:10:31.374Z,991.51
2018-05-16T01:11:31.408Z,991.50
2018-05-16T01:12:31.445Z,991.51
2018-05-16T01:13:31.478Z,991.54
2018-05-16T01:14:31.516Z,991.53
2018-05-16T01:15:31.550Z,991.54
2018-05-16T01:16:31.585Z,991.55
2018-05-16T01:17:31.621Z,991.55
2018-05-16T01:18:31.658Z,991.56
2018-05-16T01:19:31.696Z,991.53
2018-05-16T01:20:31.725Z,991.58
2018-05-16T01:21:31.761Z,991.55
2018-05-16T01:22:31.796Z,991.57
2018-05-16T01:23:31.830Z,991.58
2018-05-16T01:24:31.866Z,991.63
2018-05-16T01:25:31.899Z,991.59
2018-05-16T01:26:31.936Z,991.61
2018-05-16T01:27:31.971Z,991.57
2018-05-16T01:28:32.005Z,991.61
2018-05-16T01:29:32.049Z,991.55
2018-05-16T01:30:32.086Z,991.58
2018-05-16T01:31:32.110Z,991.60
2018-05-16T01:32:32.147Z,991.59
2018-05-16T01:33:32.183Z,991.54
2018-05-16T01:34:32.218Z,991.57
2018-05-16T01:35:32.252Z,991.57
2018-05-16T01:36:32.287Z,991.56
2018-05-16T01:37:32.321Z,991.59
2018-05-16T01:38:32.358Z,991.62
2018-05-16T01:39:32.391Z,991.59
2018-05-16T01:40:32.437Z,991.58
2018-05-16T01:41:32.463Z,991.56
2018-05-16T01:42:32.500Z,991.55
2018-05-16T01:43:32.540Z,991.49
2018-05-16T01:44:32.574Z,991.54
2018-05-16T01:45:32.603Z,991.49
2018-05-16T01:46:32.639Z,991.52
2018-05-16T01:47:32.675Z,991.51
2018-05-16T01:48:32.710Z,991.52
2018-05-16T01:49:32.744Z,991.52
2018-05-16T01:50:32.781Z,991.50
2018-05-16T01:51:32.817Z,991.51
2018-05-16T01:52:32.854Z,991.54
2018-05-16T01:53:32.885Z,991.57
2018-05-16T01:54:32.922Z,991.55
2018-05-16T01:55:32.957Z,991.56
2018-05-16T01:56:32.992Z,991.58
2018-05-16T01:57:33.027Z,991.59
2018-05-16T01:58:33.062Z,991.57
2018-05-16T01:59:33.105Z,991.61
2018-05-16T02:00:33.133Z,991.60
2018-05-16T02:01:33.169Z,991.63
2018-05-16T02:02:33.204Z,991.65
2018-05-16T02:03:33.239Z,991.59
2018-05-16T02:04:33.275Z,991.65
2018-05-16T02:05:33.308Z,991.62
2018-05-16T02:06:33.342Z,991.61
2018-05-16T02:07:33.379Z,991.63
2018-05-16T02:08:33.414Z,991.64
2018-05-16T02:09:33.451Z,991.65
2018-05-16T02:10:33.484Z,991.65
2018-05-16T02:11:33.521Z,991.62
2018-05-16T02:12:33.556Z,991.64
2018-05-16T02:13:33.589Z,991.64
2018-05-16T02:14:33.677Z,991.66
2018-05-16T02:15:33.660Z,991.64
2018-05-16T02:16:33.699Z,991.66
2018-05-16T02:17:33.730Z,991.65
2018-05-16T02:18:33.765Z,991.63
2018-05-16T02:19:33.802Z,991.62
2018-05-16T02:20:33.837Z,991.60
2018-05-16T02:21:33.882Z,991.62
2018-05-16T02:22:33.906Z,991.67
2018-05-16T02:23:33.941Z,991.68
2018-05-16T02:24:33.977Z,991.63
2018-05-16T02:25:34.012Z,991.65
2018-05-16T02:26:34.049Z,991.66
2018-05-16T02:27:34.085Z,991.67
2018-05-16T02:28:34.119Z,991.64
2018-05-16T02:29:34.153Z,991.59
2018-05-16T02:30:34.197Z,991.60
2018-05-16T02:31:34.223Z,991.59
2018-05-16T02:32:34.258Z,991.56
2018-05-16T02:33:34.294Z,991.51
2018-05-16T02:34:34.328Z,991.53
2018-05-16T02:35:34.364Z,991.51
2018-05-16T02:36:34.399Z,991.51
2018-05-16T02:37:34.440Z,991.50
2018-05-16T02:38:34.475Z,991.51
2018-05-16T02:39:34.505Z,991.50
2018-05-16T02:40:34.539Z,991.55
2018-05-16T02:41:34.574Z,991.58
2018-05-16T02:42:34.617Z,991.59
2018-05-16T02:43:34.647Z,991.60
2018-05-16T02:44:34.680Z,991.63
2018-05-16T02:45:34.715Z,991.67
2018-05-16T02:46:34.747Z,991.70
2018-05-16T02:47:34.793Z,991.65
2018-05-16T02:48:34.819Z,991.71
2018-05-16T02:49:34.855Z,991.69
2018-05-16T02:50:34.888Z,991.70
2018-05-16T02:51:34.943Z,991.70
2018-05-16T02:52:34.961Z,991.71
2018-05-16T02:53:34.995Z,991.68
2018-05-16T02:54:35.030Z,991.67
2018-05-16T02:55:35.065Z,991.67
2018-05-16T02:56:35.101Z,991.70
2018-05-16T02:57:35.135Z,991.68
2018-05-16T02:58:35.171Z,991.72
2018-05-16T02:59:35.206Z,991.70
2018-05-16T03:00:35.242Z,991.70
2018-05-16T03:01:35.282Z,991.65
2018-05-16T03:02:35.310Z,991.67
2018-05-16T03:03:35.351Z,991.62
2018-05-16T03:04:35.388Z,991.60
2018-05-16T03:05:35.415Z,991.62
2018-05-16T03:06:35.454Z,991.65
2018-05-16T03:07:35.485Z,991.62
2018-05-16T03:08:35.520Z,991.63
2018-05-16T03:09:35.553Z,991.66
2018-05-16T03:10:35.589Z,991.70
2018-05-16T03:11:35.626Z,991.71
2018-05-16T03:12:35.661Z,991.67
2018-05-16T03:13:35.695Z,991.70
2018-05-16T03:14:35.730Z,991.66
2018-05-16T03:15:35.764Z,991.68
2018-05-16T03:16:35.799Z,991.68
2018-05-16T03:17:35.833Z,991.68
2018-05-16T03:18:35.870Z,991.64
2018-05-16T03:19:35.905Z,991.62
2018-05-16T03:20:35.942Z,991.65
2018-05-16T03:21:35.974Z,991.65
2018-05-16T03:22:36.009Z,991.70
2018-05-16T03:23:36.045Z,991.65
2018-05-16T03:24:36.079Z,991.65
2018-05-16T03:25:36.115Z,991.64
2018-05-16T03:26:36.150Z,991.67
2018-05-16T03:27:36.188Z,991.70
2018-05-16T03:28:36.221Z,991.71
2018-05-16T03:29:36.255Z,991.70
2018-05-16T03:30:36.291Z,991.69
2018-05-16T03:31:36.327Z,991.70
2018-05-16T03:32:36.361Z,991.69
2018-05-16T03:33:36.394Z,991.68
2018-05-16T03:34:36.432Z,991.69
2018-05-16T03:35:36.464Z,991.70
2018-05-16T03:36:36.499Z,991.68
2018-05-16T03:37:36.535Z,991.77
2018-05-16T03:38:36.570Z,991.75
2018-05-16T03:39:36.604Z,991.73
2018-05-16T03:40:36.640Z,991.75
2018-05-16T03:41:36.675Z,991.70
2018-05-16T03:42:36.765Z,991.67
2018-05-16T03:43:36.744Z,991.71
2018-05-16T03:44:36.777Z,991.71
2018-05-16T03:45:36.812Z,991.73
2018-05-16T03:46:36.849Z,991.76
2018-05-16T03:47:36.883Z,991.78
2018-05-16T03:48:36.916Z,991.75
2018-05-16T03:49:36.952Z,991.80
2018-05-16T03:50:36.985Z,991.83
2018-05-16T03:51:37.021Z,991.83
2018-05-16T03:52:37.056Z,991.82
2018-05-16T03:53:37.091Z,991.78
2018-05-16T03:54:37.125Z,991.80
2018-05-16T03:55:37.161Z,991.78
2018-05-16T03:56:37.196Z,991.76
2018-05-16T03:57:37.238Z,991.74
2018-05-16T03:58:37.263Z,991.76
2018-05-16T03:59:37.300Z,991.81
2018-05-16T04:00:37.333Z,991.81
2018-05-16T04:01:37.376Z,991.81
2018-05-16T04:02:37.403Z,991.82
2018-05-16T04:03:37.439Z,991.79
2018-05-16T04:04:37.473Z,991.76
2018-05-16T04:05:37.506Z,991.79
2018-05-16T04:06:37.543Z,991.77
2018-05-16T04:07:37.575Z,991.83
2018-05-16T04:08:37.614Z,991.86
2018-05-16T04:09:37.646Z,991.84
2018-05-16T04:10:37.680Z,991.87
2018-05-16T04:11:37.716Z,991.85
2018-05-16T04:12:37.752Z,991.80
2018-05-16T04:13:37.785Z,991.84
2018-05-16T04:14:37.819Z,991.82
2018-05-16T04:15:37.854Z,991.88
2018-05-16T04:16:37.888Z,991.82
2018-05-16T04:17:37.922Z,991.81
2018-05-16T04:18:37.956Z,991.79
2018-05-16T04:19:37.995Z,991.76
2018-05-16T04:20:38.027Z,991.81
2018-05-16T04:21:38.058Z,991.80
2018-05-16T04:22:38.096Z,991.82
2018-05-16T04:23:38.130Z,991.86
2018-05-16T04:24:38.164Z,991.85
2018-05-16T04:25:38.199Z,991.90
2018-05-16T04:26:38.233Z,991.90
2018-05-16T04:27:38.269Z,991.89
2018-05-16T04:28:38.305Z,991.89
2018-05-16T04:29:38.338Z,991.87
2018-05-16T04:30:38.373Z,991.91
2018-05-16T04:31:38.410Z,991.93
2018-05-16T04:32:38.447Z,991.97
2018-05-16T04:33:38.479Z,991.96
2018-05-16T04:34:38.512Z,991.96
2018-05-16T04:35:38.591Z,991.98
2018-05-16T04:36:38.583Z,991.98
2018-05-16T04:37:38.620Z,992.01
2018-05-16T04:38:38.651Z,991.99
2018-05-16T04:39:38.685Z,992.00
2018-05-16T04:40:38.720Z,991.97
2018-05-16T04:41:38.804Z,992.02
2018-05-16T04:42:38.791Z,992.01
2018-05-16T04:43:38.826Z,992.01
2018-05-16T04:44:38.861Z,992.00
2018-05-16T04:45:38.893Z,992.00
2018-05-16T04:46:38.929Z,992.02
2018-05-16T04:47:38.969Z,992.00
2018-05-16T04:48:39.001Z,992.00
2018-05-16T04:49:39.037Z,992.03
2018-05-16T04:50:39.068Z,992.04
2018-05-16T04:51:39.107Z,992.03
2018-05-16T04:52:39.142Z,992.08
2018-05-16T04:53:39.171Z,992.04
2018-05-16T04:54:39.206Z,992.10
2018-05-16T04:55:39.241Z,992.06
2018-05-16T04:56:39.278Z,992.05
2018-05-16T04:57:39.309Z,992.07
2018-05-16T04:58:39.344Z,992.07
2018-05-16T04:59:39.383Z,992.02
2018-05-16T05:00:39.415Z,992.06
2018-05-16T05:01:39.447Z,992.03
2018-05-16T05:02:39.481Z,992.08
2018-05-16T05:03:39.519Z,992.10
2018-05-16T05:04:39.555Z,992.05
2018-05-16T05:05:39.609Z,992.06
2018-05-16T05:06:39.622Z,992.06
2018-05-16T05:07:39.658Z,992.06
2018-05-16T05:08:39.693Z,992.10
2018-05-16T05:09:39.726Z,992.16
2018-05-16T05:10:39.761Z,992.18
2018-05-16T05:11:39.799Z,992.23
2018-05-16T05:12:39.936Z,992.26
2018-05-16T05:13:39.867Z,992.26
2018-05-16T05:14:39.901Z,992.21
2018-05-16T05:15:39.935Z,992.22
2018-05-16T05:16:39.970Z,992.30
2018-05-16T05:17:40.008Z,992.30
2018-05-16T05:18:40.146Z,992.26
2018-05-16T05:19:40.076Z,992.27
2018-05-16T05:20:40.111Z,992.26
2018-05-16T05:21:40.153Z,992.31
2018-05-16T05:22:40.181Z,992.33
2018-05-16T05:23:40.220Z,992.36
2018-05-16T05:24:40.250Z,992.38
2018-05-16T05:25:40.285Z,992.43
2018-05-16T05:26:40.320Z,992.46
2018-05-16T05:27:40.355Z,992.50
2018-05-16T05:28:40.391Z,992.42
2018-05-16T05:29:40.427Z,992.44
2018-05-16T05:30:40.464Z,992.45
2018-05-16T05:31:40.496Z,992.52
2018-05-16T05:32:40.531Z,992.50
2018-05-16T05:33:40.566Z,992.52
2018-05-16T05:34:40.602Z,992.50
2018-05-16T05:35:40.637Z,992.47
2018-05-16T05:36:40.673Z,992.50
2018-05-16T05:37:40.707Z,992.48
2018-05-16T05:38:40.749Z,992.52
2018-05-16T05:39:40.779Z,992.46
2018-05-16T05:40:40.816Z,992.48
2018-05-16T05:41:40.851Z,992.41
2018-05-16T05:42:40.889Z,992.40
2018-05-16T05:43:40.923Z,992.42
2018-05-16T05:44:40.959Z,992.45
2018-05-16T05:45:40.996Z,992.44
2018-05-16T05:46:41.029Z,992.44
2018-05-16T05:47:41.065Z,992.50
2018-05-16T05:48:41.102Z,992.52
2018-05-16T05:49:41.143Z,992.51
2018-05-16T05:50:41.173Z,992.58
2018-05-16T05:51:41.211Z,992.57
2018-05-16T05:52:41.247Z,992.56
2018-05-16T05:53:41.283Z,992.49
2018-05-16T05:54:41.319Z,992.48
2018-05-16T05:55:41.354Z,992.48
2018-05-16T05:56:41.394Z,992.48
2018-05-16T05:57:41.424Z,992.49
2018-05-16T05:58:41.463Z,992.53
2018-05-16T05:59:41.496Z,992.53
2018-05-16T06:00:41.535Z,992.55
2018-05-16T06:01:41.568Z,992.54
2018-05-16T06:02:41.609Z,992.60
2018-05-16T06:03:41.645Z,992.57
2018-05-16T06:04:41.677Z,992.53
2018-05-16T06:05:41.713Z,992.50
2018-05-16T06:06:41.750Z,992.52
2018-05-16T06:07:41.787Z,992.52
2018-05-16T06:08:41.824Z,992.52
2018-05-16T06:09:41.865Z,992.52
2018-05-16T06:10:41.894Z,992.54
2018-05-16T06:11:41.932Z,992.51
2018-05-16T06:12:42.055Z,992.52
2018-05-16T06:13:42.006Z,992.56
2018-05-16T06:14:42.042Z,992.57
2018-05-16T06:15:42.077Z,992.61
2018-05-16T06:16:42.114Z,992.65
2018-05-16T06:17:42.148Z,992.62
2018-05-16T06:18:42.187Z,992.62
2018-05-16T06:19:42.318Z,992.63
2018-05-16T06:20:42.260Z,992.65
2018-05-16T06:21:42.299Z,992.67
2018-05-16T06:22:42.332Z,992.67
2018-05-16T06:23:42.368Z,992.66
2018-05-16T06:24:42.406Z,992.70
2018-05-16T06:25:42.440Z,992.69
2018-05-16T06:26:42.484Z,992.64
2018-05-16T06:27:42.514Z,992.62
2018-05-16T06:28:42.588Z,992.69
2018-05-16T06:29:42.587Z,992.61
2018-05-16T06:30:42.626Z,992.62
2018-05-16T06:31:42.663Z,992.66
2018-05-16T06:32:42.748Z,992.66
2018-05-16T06:33:42.733Z,992.66
2018-05-16T06:34:42.772Z,992.66
2018-05-16T06:35:42.808Z,992.70
2018-05-16T06:36:42.853Z,992.71
2018-05-16T06:37:42.880Z,992.65
2018-05-16T06:38:42.917Z,992.67
2018-05-16T06:39:42.955Z,992.68
2018-05-16T06:40:42.992Z,992.73
2018-05-16T06:41:43.028Z,992.70
2018-05-16T06:42:43.066Z,992.67
2018-05-16T06:43:43.104Z,992.68
2018-05-16T06:44:43.143Z,992.67
2018-05-16T06:45:43.186Z,992.69
2018-05-16T06:46:43.219Z,992.65
2018-05-16T06:47:43.252Z,992.64
2018-05-16T06:48:43.292Z,992.67
2018-05-16T06:49:43.325Z,992.64
2018-05-16T06:50:43.372Z,992.66
2018-05-16T06:51:43.405Z,992.65
2018-05-16T06:52:43.441Z,992.63
2018-05-16T06:53:43.476Z,992.65
2018-05-16T06:54:43.515Z,992.68
2018-05-16T06:55:43.558Z,992.72
2018-05-16T06:56:43.594Z,992.73
2018-05-16T06:57:43.626Z,992.82
2018-05-16T06:58:43.678Z,992.88
2018-05-16T06:59:43.705Z,992.86
2018-05-16T07:00:43.742Z,992.88
2018-05-16T07:01:43.781Z,992.90
2018-05-16T07:02:43.816Z,992.80
2018-05-16T07:03:43.857Z,992.84
2018-05-16T07:04:43.908Z,992.84
2018-05-16T07:05:43.929Z,992.90
2018-05-16T07:06:43.969Z,992.90
2018-05-16T07:07:44.006Z,992.87
2018-05-16T07:08:44.046Z,992.86
2018-05-16T07:09:44.100Z,992.90
2018-05-16T07:10:44.120Z,992.88
2018-05-16T07:11:44.158Z,992.85
2018-05-16T07:12:44.195Z,992.86
2018-05-16T07:13:44.233Z,992.91
2018-05-16T07:14:44.273Z,992.87
2018-05-16T07:15:44.309Z,992.85
2018-05-16T07:16:44.346Z,992.85
2018-05-16T07:17:44.385Z,992.80
2018-05-16T07:18:44.423Z,992.82
2018-05-16T07:19:44.462Z,992.83
2018-05-16T07:20:44.502Z,992.92
2018-05-16T07:21:44.537Z,992.86
2018-05-16T07:22:44.652Z,992.80
2018-05-16T07:23:44.615Z,992.77
2018-05-16T07:24:44.659Z,992.77
2018-05-16T07:25:44.691Z,992.84
2018-05-16T07:26:44.732Z,992.86
2018-05-16T07:27:44.856Z,992.83
2018-05-16T07:28:44.807Z,992.78
2018-05-16T07:29:44.848Z,992.80
2018-05-16T07:30:44.888Z,992.77
2018-05-16T07:31:44.925Z,992.75
2018-05-16T07:32:44.963Z,992.76
2018-05-16T07:33:45.001Z,992.76
2018-05-16T07:34:45.056Z,992.73
2018-05-16T07:35:45.083Z,992.68
2018-05-16T07:36:45.117Z,992.69
2018-05-16T07:37:45.157Z,992.71
2018-05-16T07:38:45.202Z,992.66
2018-05-16T07:39:45.242Z,992.65
2018-05-16T07:40:45.273Z,992.72
2018-05-16T07:41:45.316Z,992.73
2018-05-16T07:42:45.350Z,992.80
2018-05-16T07:43:45.390Z,992.81
2018-05-16T07:44:45.428Z,992.72
2018-05-16T07:45:45.466Z,992.67
2018-05-16T07:46:45.504Z,992.68
2018-05-16T07:47:45.547Z,992.66
2018-05-16T07:48:45.583Z,992.70
2018-05-16T07:49:45.624Z,992.71
2018-05-16T07:50:45.667Z,992.76
2018-05-16T07:51:45.698Z,992.75
2018-05-16T07:52:45.735Z,992.83
2018-05-16T07:53:45.774Z,992.93
2018-05-16T07:54:45.816Z,992.95
2018-05-16T07:55:45.852Z,992.96
2018-05-16T07:56:45.890Z,992.96
2018-05-16T07:57:45.929Z,992.97
2018-05-16T07:58:45.968Z,993.04
2018-05-16T07:59:46.009Z,992.95
2018-05-16T08:00:46.049Z,992.94
2018-05-16T08:01:46.082Z,992.89
2018-05-16T08:02:46.124Z,992.88
2018-05-16T08:03:46.162Z,992.92
2018-05-16T08:04:46.202Z,992.96
2018-05-16T08:05:46.244Z,992.96
2018-05-16T08:06:46.280Z,992.95
2018-05-16T08:07:46.318Z,992.94
2018-05-16T08:08:46.358Z,993.03
2018-05-16T08:09:46.397Z,993.06
2018-05-16T08:10:46.435Z,993.02
2018-05-16T08:11:46.473Z,992.98
2018-05-16T08:12:46.522Z,992.92
2018-05-16T08:13:46.552Z,992.92
2018-05-16T08:14:46.592Z,992.92
2018-05-16T08:15:46.632Z,992.89
2018-05-16T08:16:46.673Z,992.99
2018-05-16T08:17:46.713Z,992.91
2018-05-16T08:18:46.749Z,992.90
2018-05-16T08:19:46.797Z,992.87
2018-05-16T08:20:46.827Z,992.90
2018-05-16T08:21:46.870Z,992.95
2018-05-16T08:22:46.905Z,993.09
2018-05-16T08:23:46.944Z,993.11
2018-05-16T08:24:46.984Z,993.16
2018-05-16T08:25:47.023Z,993.12
2018-05-16T08:26:47.061Z,993.08
2018-05-16T08:27:47.103Z,993.14
2018-05-16T08:28:47.142Z,993.13
2018-05-16T08:29:47.185Z,993.13
2018-05-16T08:30:47.218Z,993.09
2018-05-16T08:31:47.264Z,993.12
2018-05-16T08:32:47.311Z,993.10
2018-05-16T08:33:47.337Z,993.09
2018-05-16T08:34:47.384Z,993.15
2018-05-16T08:35:47.419Z,993.13
2018-05-16T08:36:47.505Z,993.13
2018-05-16T08:37:47.496Z,993.19
2018-05-16T08:38:47.536Z,993.23
2018-05-16T08:39:47.579Z,993.28
2018-05-16T08:40:47.617Z,993.18
2018-05-16T08:41:47.656Z,993.07
2018-05-16T08:42:47.695Z,993.13
2018-05-16T08:43:47.743Z,993.08
2018-05-16T08:44:47.776Z,993.04
2018-05-16T08:45:47.828Z,993.02
2018-05-16T08:46:47.856Z,993.05
2018-05-16T08:47:47.901Z,993.14
2018-05-16T08:48:47.937Z,993.04
2018-05-16T08:49:47.992Z,993.06
2018-05-16T08:50:48.021Z,993.07
2018-05-16T08:51:48.059Z,993.07
2018-05-16T08:52:48.100Z,993.07
2018-05-16T08:53:48.141Z,993.08
2018-05-16T08:54:48.182Z,993.08
2018-05-16T08:55:48.221Z,993.04
2018-05-16T08:56:48.260Z,993.02
2018-05-16T08:57:48.300Z,993.09
2018-05-16T08:58:48.345Z,993.09
2018-05-16T08:59:48.381Z,993.12
2018-05-16T09:00:48.422Z,993.00
2018-05-16T09:01:48.467Z,992.86
2018-05-16T09:02:48.504Z,992.90
2018-05-16T09:03:48.544Z,992.89
2018-05-16T09:04:48.585Z,992.91
2018-05-16T09:05:48.625Z,992.84
2018-05-16T09:06:48.667Z,992.82
2018-05-16T09:07:48.706Z,992.81
2018-05-16T09:08:48.746Z,992.88
2018-05-16T09:09:48.788Z,992.89
2018-05-16T09:10:48.826Z,992.96
2018-05-16T09:11:48.866Z,993.00
2018-05-16T09:12:48.907Z,993.11
2018-05-16T09:13:48.952Z,993.14
2018-05-16T09:14:48.993Z,993.19
2018-05-16T09:15:49.033Z,993.10
2018-05-16T09:16:49.079Z,993.08
2018-05-16T09:17:49.109Z,993.11
2018-05-16T09:18:49.149Z,993.04
2018-05-16T09:19:49.197Z,993.08
2018-05-16T09:20:49.231Z,993.09
2018-05-16T09:21:49.276Z,993.05
2018-05-16T09:22:49.310Z,993.04
2018-05-16T09:23:49.350Z,993.09
2018-05-16T09:24:49.398Z,993.15
2018-05-16T09:25:49.429Z,993.19
2018-05-16T09:26:49.470Z,993.10
2018-05-16T09:27:49.511Z,993.17
2018-05-16T09:28:49.552Z,993.09
2018-05-16T09:29:49.592Z,993.04
2018-05-16T09:30:49.632Z,993.03
2018-05-16T09:31:49.674Z,993.04
2018-05-16T09:32:49.713Z,993.01
2018-05-16T09:33:49.755Z,993.04
2018-05-16T09:34:49.794Z,993.04
2018-05-16T09:35:49.833Z,993.03
2018-05-16T09:36:49.875Z,992.99
2018-05-16T09:37:49.915Z,992.99
2018-05-16T09:38:49.957Z,992.96
2018-05-16T09:39:49.998Z,993.01
2018-05-16T09:40:50.036Z,993.01
2018-05-16T09:41:50.074Z,993.02
2018-05-16T09:42:50.114Z,993.08
2018-05-16T09:43:50.156Z,993.03
2018-05-16T09:44:50.197Z,993.09
2018-05-16T09:45:50.304Z,992.98
2018-05-16T09:46:50.274Z,992.99
2018-05-16T09:47:50.316Z,992.98
2018-05-16T09:48:50.356Z,993.02
2018-05-16T09:49:50.402Z,993.08
2018-05-16T09:50:50.436Z,993.13
2018-05-16T09:51:50.476Z,993.11
2018-05-16T09:52:50.516Z,993.05
2018-05-16T09:53:50.555Z,993.10
2018-05-16T09:54:50.602Z,993.16
2018-05-16T09:55:50.637Z,993.09
2018-05-16T09:56:50.676Z,993.06
2018-05-16T09:57:50.716Z,993.07
2018-05-16T09:58:50.755Z,993.06
2018-05-16T09:59:50.797Z,993.06
2018-05-16T10:00:50.837Z,993.00
2018-05-16T10:01:50.882Z,993.03
2018-05-16T10:02:50.975Z,993.12
2018-05-16T10:03:50.955Z,993.11
2018-05-16T10:04:50.995Z,993.13
2018-05-16T10:05:51.045Z,993.16
2018-05-16T10:06:51.074Z,993.11
2018-05-16T10:07:51.113Z,993.10
2018-05-16T10:08:51.164Z,993.19
2018-05-16T10:09:51.300Z,993.23
2018-05-16T10:10:51.234Z,993.19
2018-05-16T10:11:51.276Z,993.19
2018-05-16T10:12:51.314Z,993.26
2018-05-16T10:13:51.355Z,993.21
2018-05-16T10:14:51.392Z,993.26
2018-05-16T10:15:51.434Z,993.26
2018-05-16T10:16:51.492Z,993.32
2018-05-16T10:17:51.522Z,993.32
2018-05-16T10:18:51.556Z,993.29
2018-05-16T10:19:51.596Z,993.29
2018-05-16T10:20:51.643Z,993.32
2018-05-16T10:21:51.675Z,993.31
2018-05-16T10:22:51.719Z,993.34
2018-05-16T10:23:51.824Z,993.35
2018-05-16T10:24:51.800Z,993.30
2018-05-16T10:25:51.841Z,993.23
2018-05-16T10:26:51.880Z,993.19
2018-05-16T10:27:51.923Z,993.22
2018-05-16T10:28:51.960Z,993.21
2018-05-16T10:29:52.071Z,993.18
2018-05-16T10:30:52.044Z,993.16
2018-05-16T10:31:52.085Z,993.13
2018-05-16T10:32:52.130Z,993.22
2018-05-16T10:33:52.167Z,993.23
2018-05-16T10:34:52.207Z,993.23
2018-05-16T10:35:52.252Z,993.30
2018-05-16T10:36:52.288Z,993.42
2018-05-16T10:37:52.328Z,993.50
2018-05-16T10:38:52.369Z,993.42
2018-05-16T10:39:52.416Z,993.35
2018-05-16T10:40:52.451Z,993.35
2018-05-16T10:41:52.493Z,993.30
2018-05-16T10:42:52.536Z,993.32
2018-05-16T10:43:52.575Z,993.35
2018-05-16T10:44:52.615Z,993.41
2018-05-16T10:45:52.663Z,993.35
2018-05-16T10:46:52.699Z,993.40
2018-05-16T10:47:52.742Z,993.34
2018-05-16T10:48:52.781Z,993.29
2018-05-16T10:49:52.823Z,993.25
2018-05-16T10:50:52.862Z,993.09
2018-05-16T10:51:52.906Z,993.08
2018-05-16T10:52:52.945Z,993.04
2018-05-16T10:53:52.990Z,993.06
2018-05-16T10:54:53.029Z,992.99
2018-05-16T10:55:53.091Z,992.96
2018-05-16T10:56:53.114Z,993.01
2018-05-16T10:57:53.156Z,992.98
2018-05-16T10:58:53.195Z,992.93
2018-05-16T10:59:53.239Z,992.90
2018-05-16T11:00:53.283Z,992.87
2018-05-16T11:01:53.320Z,992.78
2018-05-16T11:02:53.369Z,992.80
2018-05-16T11:03:53.403Z,992.80
2018-05-16T11:04:53.445Z,992.83
2018-05-16T11:05:53.486Z,992.89
2018-05-16T11:06:53.529Z,992.89
2018-05-16T11:07:53.574Z,992.89
2018-05-16T11:08:53.709Z,992.89
2018-05-16T11:09:53.652Z,992.96
2018-05-16T11:10:53.693Z,992.92
2018-05-16T11:11:53.737Z,992.93
2018-05-16T11:12:53.784Z,992.90
2018-05-16T11:13:53.819Z,992.86
2018-05-16T11:14:53.862Z,992.86
2018-05-16T11:15:53.902Z,992.90
2018-05-16T11:16:53.943Z,992.95
2018-05-16T11:17:53.985Z,992.88
2018-05-16T11:18:54.027Z,992.91
2018-05-16T11:19:54.076Z,992.86
2018-05-16T11:20:54.111Z,992.96
2018-05-16T11:21:54.152Z,992.94
2018-05-16T11:22:54.194Z,993.01
2018-05-16T11:23:54.236Z,993.05
2018-05-16T11:24:54.276Z,993.08
2018-05-16T11:25:54.318Z,993.03
2018-05-16T11:26:54.363Z,992.97
2018-05-16T11:27:54.404Z,992.93
2018-05-16T11:28:54.496Z,992.95
2018-05-16T11:29:54.483Z,992.91
2018-05-16T11:30:54.530Z,992.91
2018-05-16T11:31:54.569Z,992.93
2018-05-16T11:32:54.611Z,992.90
2018-05-16T11:33:54.654Z,992.87
2018-05-16T11:34:54.697Z,992.89
2018-05-16T11:35:54.745Z,992.89
2018-05-16T11:36:54.777Z,992.93
2018-05-16T11:37:54.819Z,992.92
2018-05-16T11:38:54.860Z,992.90
2018-05-16T11:39:54.903Z,992.88
2018-05-16T11:40:54.945Z,992.90
2018-05-16T11:41:54.985Z,992.94
2018-05-16T11:42:55.027Z,992.99
2018-05-16T11:43:55.076Z,993.04
2018-05-16T11:44:55.112Z,992.97
2018-05-16T11:45:55.155Z,992.96
2018-05-16T11:46:55.196Z,992.99
2018-05-16T11:47:55.239Z,993.07
2018-05-16T11:48:55.356Z,993.03
2018-05-16T11:49:55.320Z,993.03
2018-05-16T11:50:55.366Z,992.94
2018-05-16T11:51:55.406Z,992.75
2018-05-16T11:52:55.447Z,992.70
2018-05-16T11:53:55.490Z,992.62
2018-05-16T11:54:55.533Z,992.64
2018-05-16T11:55:55.580Z,992.59
2018-05-16T11:56:55.614Z,992.66
2018-05-16T11:57:55.659Z,992.61
2018-05-16T11:58:55.697Z,992.69
2018-05-16T11:59:55.739Z,992.75
2018-05-16T12:00:55.784Z,992.79
2018-05-16T12:01:55.825Z,992.80
2018-05-16T12:02:55.966Z,992.83
2018-05-16T12:03:55.912Z,992.75
2018-05-16T12:04:55.950Z,992.72
2018-05-16T12:05:55.990Z,992.71
2018-05-16T12:06:56.032Z,992.71
2018-05-16T12:07:56.074Z,992.74
2018-05-16T12:08:56.120Z,992.80
2018-05-16T12:09:56.156Z,992.79
2018-05-16T12:10:56.197Z,992.83
2018-05-16T12:11:56.245Z,992.82
2018-05-16T12:12:56.285Z,992.84
2018-05-16T12:13:56.323Z,992.89
2018-05-16T12:14:56.435Z,992.89
2018-05-16T12:15:56.405Z,992.86
2018-05-16T12:16:56.446Z,992.84
2018-05-16T12:17:56.485Z,992.81
2018-05-16T12:18:56.529Z,992.88
2018-05-16T12:19:56.570Z,992.83
2018-05-16T12:20:56.613Z,992.82
2018-05-16T12:21:56.654Z,992.68
2018-05-16T12:22:56.694Z,992.74
2018-05-16T12:23:56.735Z,992.80
2018-05-16T12:24:56.777Z,992.90
2018-05-16T12:25:56.820Z,992.89
2018-05-16T12:26:56.858Z,992.94
2018-05-16T12:27:56.902Z,992.82
2018-05-16T12:28:56.953Z,992.85